sensor_id;sensor_type;location;lat;lon;timestamp;P1;durP1;ratioP1;P2;durP2;ratioP2
35909;SDS011;22004;49.120;-0.200;2023-04-15T00:01:46;6.80;;;1.55;;
35909;SDS011;22004;49.120;-0.200;2023-04-15T00:04:12;5.40;;;1.10;;
35909;SDS011;22004;49.120;-0.200;2023-04-15T00:06:37;6.43;;;1.30;;
35909;SDS011;22004;49.120;-0.200;2023-04-15T00:09:04;5.85;;;1.08;;
35909;SDS011;22004;49.120;-0.200;2023-04-15T00:11:29;5.80;;;1.77;;
35909;SDS011;22004;49.120;-0.200;2023-04-15T00:13:55;6.20;;;1.15;;
35909;SDS011;22004;49.120;-0.200;2023-04-15T00:16:20;8.27;;;1.63;;
35909;SDS011;22004;49.120;-0.200;2023-04-15T00:18:45;6.78;;;1.15;;
35909;SDS011;22004;49.120;-0.200;2023-04-15T00:21:11;8.70;;;1.13;;
35909;SDS011;22004;49.120;-0.200;2023-04-15T00:23:36;8.48;;;1.38;;
35909;SDS011;22004;49.120;-0.200;2023-04-15T00:26:02;4.05;;;0.98;;
35909;SDS011;22004;49.120;-0.200;2023-04-15T00:28:27;4.35;;;1.00;;
35909;SDS011;22004;49.120;-0.200;2023-04-15T00:30:53;8.40;;;1.50;;
35909;SDS011;22004;49.120;-0.200;2023-04-15T00:33:18;5.25;;;1.42;;
35909;SDS011;22004;49.120;-0.200;2023-04-15T00:35:43;9.35;;;1.10;;
35909;SDS011;22004;49.120;-0.200;2023-04-15T00:38:09;5.60;;;1.02;;
35909;SDS011;22004;49.120;-0.200;2023-04-15T00:40:34;3.67;;;1.20;;
35909;SDS011;22004;49.120;-0.200;2023-04-15T00:43:00;4.43;;;1.13;;
35909;SDS011;22004;49.120;-0.200;2023-04-15T00:45:26;4.80;;;1.02;;
35909;SDS011;22004;49.120;-0.200;2023-04-15T00:47:52;5.78;;;1.13;;
35909;SDS011;22004;49.120;-0.200;2023-04-15T00:50:17;5.00;;;1.10;;
35909;SDS011;22004;49.120;-0.200;2023-04-15T00:52:43;8.63;;;1.02;;
35909;SDS011;22004;49.120;-0.200;2023-04-15T00:55:08;7.55;;;1.20;;
35909;SDS011;22004;49.120;-0.200;2023-04-15T00:57:34;4.47;;;1.00;;
35909;SDS011;22004;49.120;-0.200;2023-04-15T01:00:00;4.00;;;1.10;;
35909;SDS011;22004;49.120;-0.200;2023-04-15T01:02:26;6.25;;;1.23;;
35909;SDS011;22004;49.120;-0.200;2023-04-15T01:04:51;4.97;;;1.27;;
35909;SDS011;22004;49.120;-0.200;2023-04-15T01:07:17;12.73;;;1.73;;
35909;SDS011;22004;49.120;-0.200;2023-04-15T01:09:42;3.30;;;1.08;;
35909;SDS011;22004;49.120;-0.200;2023-04-15T01:12:11;4.75;;;0.95;;
35909;SDS011;22004;49.120;-0.200;2023-04-15T01:14:39;5.40;;;1.15;;
35909;SDS011;22004;49.120;-0.200;2023-04-15T01:17:05;5.88;;;1.17;;
35909;SDS011;22004;49.120;-0.200;2023-04-15T01:19:31;8.23;;;1.23;;
35909;SDS011;22004;49.120;-0.200;2023-04-15T01:21:57;8.63;;;1.50;;
35909;SDS011;22004;49.120;-0.200;2023-04-15T01:24:22;4.28;;;1.00;;
35909;SDS011;22004;49.120;-0.200;2023-04-15T01:26:50;2.67;;;0.70;;
35909;SDS011;22004;49.120;-0.200;2023-04-15T01:29:15;5.63;;;1.15;;
35909;SDS011;22004;49.120;-0.200;2023-04-15T01:31:49;12.23;;;1.83;;
35909;SDS011;22004;49.120;-0.200;2023-04-15T01:34:16;6.20;;;1.10;;
35909;SDS011;22004;49.120;-0.200;2023-04-15T01:36:41;6.95;;;1.15;;
35909;SDS011;22004;49.120;-0.200;2023-04-15T01:39:06;8.63;;;1.15;;
35909;SDS011;22004;49.120;-0.200;2023-04-15T01:41:32;6.15;;;1.52;;
35909;SDS011;22004;49.120;-0.200;2023-04-15T01:43:57;3.05;;;0.82;;
35909;SDS011;22004;49.120;-0.200;2023-04-15T01:46:23;6.47;;;1.38;;
35909;SDS011;22004;49.120;-0.200;2023-04-15T01:48:48;5.60;;;1.13;;
35909;SDS011;22004;49.120;-0.200;2023-04-15T01:51:14;7.47;;;1.45;;
35909;SDS011;22004;49.120;-0.200;2023-04-15T01:53:39;5.65;;;1.20;;
35909;SDS011;22004;49.120;-0.200;2023-04-15T01:56:05;7.35;;;1.10;;
35909;SDS011;22004;49.120;-0.200;2023-04-15T01:58:31;8.80;;;1.30;;
35909;SDS011;22004;49.120;-0.200;2023-04-15T02:00:56;8.05;;;1.40;;
35909;SDS011;22004;49.120;-0.200;2023-04-15T02:03:23;6.40;;;1.17;;
35909;SDS011;22004;49.120;-0.200;2023-04-15T02:05:49;8.07;;;1.23;;
35909;SDS011;22004;49.120;-0.200;2023-04-15T02:08:15;13.55;;;1.58;;
35909;SDS011;22004;49.120;-0.200;2023-04-15T02:10:40;7.47;;;1.25;;
35909;SDS011;22004;49.120;-0.200;2023-04-15T02:13:06;5.47;;;1.25;;
35909;SDS011;22004;49.120;-0.200;2023-04-15T02:15:31;2.85;;;0.68;;
35909;SDS011;22004;49.120;-0.200;2023-04-15T02:17:57;4.68;;;0.80;;
35909;SDS011;22004;49.120;-0.200;2023-04-15T02:20:24;5.60;;;1.23;;
35909;SDS011;22004;49.120;-0.200;2023-04-15T02:22:50;6.90;;;1.20;;
35909;SDS011;22004;49.120;-0.200;2023-04-15T02:25:16;2.90;;;1.08;;
35909;SDS011;22004;49.120;-0.200;2023-04-15T02:27:42;6.38;;;1.13;;
35909;SDS011;22004;49.120;-0.200;2023-04-15T02:30:10;6.50;;;1.05;;
35909;SDS011;22004;49.120;-0.200;2023-04-15T02:32:36;6.53;;;1.30;;
35909;SDS011;22004;49.120;-0.200;2023-04-15T02:35:05;4.72;;;0.90;;
35909;SDS011;22004;49.120;-0.200;2023-04-15T02:37:34;4.00;;;1.10;;
35909;SDS011;22004;49.120;-0.200;2023-04-15T02:40:05;7.80;;;1.00;;
35909;SDS011;22004;49.120;-0.200;2023-04-15T02:42:31;7.78;;;1.20;;
35909;SDS011;22004;49.120;-0.200;2023-04-15T02:44:57;3.80;;;0.70;;
35909;SDS011;22004;49.120;-0.200;2023-04-15T02:47:22;4.63;;;0.93;;
35909;SDS011;22004;49.120;-0.200;2023-04-15T02:49:48;8.85;;;1.10;;
35909;SDS011;22004;49.120;-0.200;2023-04-15T02:52:13;2.58;;;0.82;;
35909;SDS011;22004;49.120;-0.200;2023-04-15T02:54:38;4.40;;;1.05;;
35909;SDS011;22004;49.120;-0.200;2023-04-15T02:57:04;1.67;;;0.63;;
35909;SDS011;22004;49.120;-0.200;2023-04-15T02:59:30;4.25;;;1.10;;
35909;SDS011;22004;49.120;-0.200;2023-04-15T03:01:56;4.90;;;0.80;;
35909;SDS011;22004;49.120;-0.200;2023-04-15T03:04:25;7.32;;;1.10;;
35909;SDS011;22004;49.120;-0.200;2023-04-15T03:06:50;8.57;;;1.05;;
35909;SDS011;22004;49.120;-0.200;2023-04-15T03:09:16;5.32;;;1.10;;
35909;SDS011;22004;49.120;-0.200;2023-04-15T03:11:41;3.42;;;0.85;;
35909;SDS011;22004;49.120;-0.200;2023-04-15T03:14:06;3.85;;;0.90;;
35909;SDS011;22004;49.120;-0.200;2023-04-15T03:16:32;12.90;;;1.02;;
35909;SDS011;22004;49.120;-0.200;2023-04-15T03:18:57;4.05;;;1.20;;
35909;SDS011;22004;49.120;-0.200;2023-04-15T03:21:22;3.20;;;0.80;;
35909;SDS011;22004;49.120;-0.200;2023-04-15T03:23:48;5.38;;;1.13;;
35909;SDS011;22004;49.120;-0.200;2023-04-15T03:29:08;5.32;;;1.10;;
35909;SDS011;22004;49.120;-0.200;2023-04-15T03:31:34;10.43;;;1.20;;
35909;SDS011;22004;49.120;-0.200;2023-04-15T03:33:59;4.35;;;0.75;;
35909;SDS011;22004;49.120;-0.200;2023-04-15T03:36:24;6.82;;;0.90;;
35909;SDS011;22004;49.120;-0.200;2023-04-15T03:38:50;7.03;;;1.20;;
35909;SDS011;22004;49.120;-0.200;2023-04-15T03:41:15;7.85;;;1.55;;
35909;SDS011;22004;49.120;-0.200;2023-04-15T03:43:41;7.95;;;1.27;;
35909;SDS011;22004;49.120;-0.200;2023-04-15T03:46:06;4.07;;;1.00;;
35909;SDS011;22004;49.120;-0.200;2023-04-15T03:48:32;3.38;;;1.05;;
35909;SDS011;22004;49.120;-0.200;2023-04-15T03:50:57;2.72;;;0.80;;
35909;SDS011;22004;49.120;-0.200;2023-04-15T03:53:22;10.30;;;1.00;;
35909;SDS011;22004;49.120;-0.200;2023-04-15T03:55:48;3.97;;;0.90;;
35909;SDS011;22004;49.120;-0.200;2023-04-15T03:58:13;3.55;;;1.13;;
35909;SDS011;22004;49.120;-0.200;2023-04-15T04:00:39;6.82;;;1.23;;
35909;SDS011;22004;49.120;-0.200;2023-04-15T04:03:05;2.35;;;0.90;;
35909;SDS011;22004;49.120;-0.200;2023-04-15T04:05:31;1.52;;;0.80;;
35909;SDS011;22004;49.120;-0.200;2023-04-15T04:07:56;7.53;;;1.17;;
35909;SDS011;22004;49.120;-0.200;2023-04-15T04:10:21;4.60;;;1.13;;
35909;SDS011;22004;49.120;-0.200;2023-04-15T04:12:47;7.70;;;1.75;;
35909;SDS011;22004;49.120;-0.200;2023-04-15T04:15:12;4.82;;;1.10;;
35909;SDS011;22004;49.120;-0.200;2023-04-15T04:17:37;5.35;;;1.55;;
35909;SDS011;22004;49.120;-0.200;2023-04-15T04:20:03;7.57;;;1.27;;
35909;SDS011;22004;49.120;-0.200;2023-04-15T04:22:29;5.30;;;1.63;;
35909;SDS011;22004;49.120;-0.200;2023-04-15T04:24:55;8.35;;;1.42;;
35909;SDS011;22004;49.120;-0.200;2023-04-15T04:27:21;5.20;;;1.50;;
35909;SDS011;22004;49.120;-0.200;2023-04-15T04:29:46;7.70;;;1.52;;
35909;SDS011;22004;49.120;-0.200;2023-04-15T04:32:13;6.43;;;1.38;;
35909;SDS011;22004;49.120;-0.200;2023-04-15T04:34:39;8.43;;;1.65;;
35909;SDS011;22004;49.120;-0.200;2023-04-15T04:37:04;9.80;;;1.70;;
35909;SDS011;22004;49.120;-0.200;2023-04-15T04:39:30;7.05;;;1.58;;
35909;SDS011;22004;49.120;-0.200;2023-04-15T04:41:56;6.38;;;1.50;;
35909;SDS011;22004;49.120;-0.200;2023-04-15T04:44:22;5.18;;;1.52;;
35909;SDS011;22004;49.120;-0.200;2023-04-15T04:46:47;5.95;;;1.20;;
35909;SDS011;22004;49.120;-0.200;2023-04-15T04:49:12;6.53;;;1.65;;
35909;SDS011;22004;49.120;-0.200;2023-04-15T04:51:38;4.95;;;2.20;;
35909;SDS011;22004;49.120;-0.200;2023-04-15T04:54:03;11.60;;;1.98;;
35909;SDS011;22004;49.120;-0.200;2023-04-15T04:56:28;5.38;;;1.67;;
35909;SDS011;22004;49.120;-0.200;2023-04-15T04:58:54;9.57;;;2.10;;
35909;SDS011;22004;49.120;-0.200;2023-04-15T05:01:19;9.60;;;2.03;;
35909;SDS011;22004;49.120;-0.200;2023-04-15T05:03:45;9.50;;;2.08;;
35909;SDS011;22004;49.120;-0.200;2023-04-15T05:06:10;6.68;;;2.03;;
35909;SDS011;22004;49.120;-0.200;2023-04-15T05:08:36;12.77;;;2.13;;
35909;SDS011;22004;49.120;-0.200;2023-04-15T05:11:02;7.57;;;2.38;;
35909;SDS011;22004;49.120;-0.200;2023-04-15T05:13:27;9.32;;;1.90;;
35909;SDS011;22004;49.120;-0.200;2023-04-15T05:15:54;9.70;;;2.13;;
35909;SDS011;22004;49.120;-0.200;2023-04-15T05:18:19;10.15;;;2.28;;
35909;SDS011;22004;49.120;-0.200;2023-04-15T05:20:45;7.43;;;2.20;;
35909;SDS011;22004;49.120;-0.200;2023-04-15T05:23:10;8.63;;;2.00;;
35909;SDS011;22004;49.120;-0.200;2023-04-15T05:25:35;9.38;;;1.80;;
35909;SDS011;22004;49.120;-0.200;2023-04-15T05:28:01;7.88;;;2.10;;
35909;SDS011;22004;49.120;-0.200;2023-04-15T05:30:26;9.85;;;2.03;;
35909;SDS011;22004;49.120;-0.200;2023-04-15T05:32:51;8.43;;;1.60;;
35909;SDS011;22004;49.120;-0.200;2023-04-15T05:35:17;11.10;;;2.05;;
35909;SDS011;22004;49.120;-0.200;2023-04-15T05:37:43;9.23;;;1.88;;
35909;SDS011;22004;49.120;-0.200;2023-04-15T05:40:09;15.35;;;2.55;;
35909;SDS011;22004;49.120;-0.200;2023-04-15T05:42:34;8.20;;;2.38;;
35909;SDS011;22004;49.120;-0.200;2023-04-15T05:45:00;6.57;;;1.77;;
35909;SDS011;22004;49.120;-0.200;2023-04-15T05:47:25;10.60;;;2.70;;
35909;SDS011;22004;49.120;-0.200;2023-04-15T05:49:51;8.98;;;2.08;;
35909;SDS011;22004;49.120;-0.200;2023-04-15T05:52:16;6.72;;;1.80;;
35909;SDS011;22004;49.120;-0.200;2023-04-15T05:54:42;4.43;;;1.55;;
35909;SDS011;22004;49.120;-0.200;2023-04-15T05:57:07;7.57;;;1.88;;
35909;SDS011;22004;49.120;-0.200;2023-04-15T05:59:32;10.00;;;1.95;;
35909;SDS011;22004;49.120;-0.200;2023-04-15T06:01:58;6.75;;;2.22;;
35909;SDS011;22004;49.120;-0.200;2023-04-15T06:04:23;7.20;;;2.00;;
35909;SDS011;22004;49.120;-0.200;2023-04-15T06:06:48;7.85;;;1.80;;
35909;SDS011;22004;49.120;-0.200;2023-04-15T06:09:14;8.27;;;1.80;;
35909;SDS011;22004;49.120;-0.200;2023-04-15T06:11:39;7.40;;;2.20;;
35909;SDS011;22004;49.120;-0.200;2023-04-15T06:14:05;5.40;;;1.85;;
35909;SDS011;22004;49.120;-0.200;2023-04-15T06:16:30;7.38;;;1.83;;
35909;SDS011;22004;49.120;-0.200;2023-04-15T06:18:56;4.68;;;1.55;;
35909;SDS011;22004;49.120;-0.200;2023-04-15T06:21:21;9.98;;;2.22;;
35909;SDS011;22004;49.120;-0.200;2023-04-15T06:23:46;5.97;;;1.75;;
35909;SDS011;22004;49.120;-0.200;2023-04-15T06:26:12;8.05;;;2.30;;
35909;SDS011;22004;49.120;-0.200;2023-04-15T06:28:37;4.72;;;1.40;;
35909;SDS011;22004;49.120;-0.200;2023-04-15T06:31:03;6.13;;;2.13;;
35909;SDS011;22004;49.120;-0.200;2023-04-15T06:33:28;7.15;;;2.10;;
35909;SDS011;22004;49.120;-0.200;2023-04-15T06:35:53;4.97;;;1.98;;
35909;SDS011;22004;49.120;-0.200;2023-04-15T06:38:19;6.82;;;2.03;;
35909;SDS011;22004;49.120;-0.200;2023-04-15T06:40:44;6.30;;;2.15;;
35909;SDS011;22004;49.120;-0.200;2023-04-15T06:43:10;7.07;;;2.97;;
35909;SDS011;22004;49.120;-0.200;2023-04-15T06:45:35;5.95;;;1.92;;
35909;SDS011;22004;49.120;-0.200;2023-04-15T06:48:00;6.60;;;1.80;;
35909;SDS011;22004;49.120;-0.200;2023-04-15T06:50:26;6.30;;;1.80;;
35909;SDS011;22004;49.120;-0.200;2023-04-15T06:52:52;3.85;;;1.60;;
35909;SDS011;22004;49.120;-0.200;2023-04-15T06:55:18;7.03;;;2.05;;
35909;SDS011;22004;49.120;-0.200;2023-04-15T06:57:44;7.53;;;2.25;;
35909;SDS011;22004;49.120;-0.200;2023-04-15T07:00:09;2.83;;;1.55;;
35909;SDS011;22004;49.120;-0.200;2023-04-15T07:02:36;5.78;;;2.08;;
35909;SDS011;22004;49.120;-0.200;2023-04-15T07:05:01;5.78;;;2.10;;
35909;SDS011;22004;49.120;-0.200;2023-04-15T07:07:26;4.15;;;1.60;;
35909;SDS011;22004;49.120;-0.200;2023-04-15T07:09:52;11.57;;;2.25;;
35909;SDS011;22004;49.120;-0.200;2023-04-15T07:12:17;6.95;;;1.58;;
35909;SDS011;22004;49.120;-0.200;2023-04-15T07:14:43;5.90;;;2.03;;
35909;SDS011;22004;49.120;-0.200;2023-04-15T07:17:09;4.30;;;1.77;;
35909;SDS011;22004;49.120;-0.200;2023-04-15T07:19:34;4.70;;;1.70;;
35909;SDS011;22004;49.120;-0.200;2023-04-15T07:21:59;7.15;;;1.77;;
35909;SDS011;22004;49.120;-0.200;2023-04-15T07:24:25;6.40;;;2.08;;
35909;SDS011;22004;49.120;-0.200;2023-04-15T07:26:51;4.55;;;1.75;;
35909;SDS011;22004;49.120;-0.200;2023-04-15T07:29:21;5.75;;;2.13;;
35909;SDS011;22004;49.120;-0.200;2023-04-15T07:31:47;4.55;;;1.75;;
35909;SDS011;22004;49.120;-0.200;2023-04-15T07:34:12;7.97;;;2.20;;
35909;SDS011;22004;49.120;-0.200;2023-04-15T07:36:38;7.88;;;2.35;;
35909;SDS011;22004;49.120;-0.200;2023-04-15T07:39:04;5.78;;;2.25;;
35909;SDS011;22004;49.120;-0.200;2023-04-15T07:41:30;3.78;;;2.00;;
35909;SDS011;22004;49.120;-0.200;2023-04-15T07:43:55;6.65;;;2.38;;
35909;SDS011;22004;49.120;-0.200;2023-04-15T07:46:21;3.70;;;2.13;;
35909;SDS011;22004;49.120;-0.200;2023-04-15T07:48:48;4.38;;;2.10;;
35909;SDS011;22004;49.120;-0.200;2023-04-15T07:51:14;4.00;;;2.25;;
35909;SDS011;22004;49.120;-0.200;2023-04-15T07:53:39;7.53;;;2.40;;
35909;SDS011;22004;49.120;-0.200;2023-04-15T07:56:04;5.93;;;2.35;;
35909;SDS011;22004;49.120;-0.200;2023-04-15T07:58:30;12.02;;;2.63;;
35909;SDS011;22004;49.120;-0.200;2023-04-15T08:03:31;4.97;;;2.05;;
35909;SDS011;22004;49.120;-0.200;2023-04-15T08:05:57;7.40;;;2.30;;
35909;SDS011;22004;49.120;-0.200;2023-04-15T08:08:22;7.47;;;2.78;;
35909;SDS011;22004;49.120;-0.200;2023-04-15T08:10:48;6.40;;;2.10;;
35909;SDS011;22004;49.120;-0.200;2023-04-15T08:13:14;7.25;;;2.17;;
35909;SDS011;22004;49.120;-0.200;2023-04-15T08:15:40;10.10;;;2.65;;
35909;SDS011;22004;49.120;-0.200;2023-04-15T08:18:05;3.78;;;1.90;;
35909;SDS011;22004;49.120;-0.200;2023-04-15T08:20:31;5.72;;;2.00;;
35909;SDS011;22004;49.120;-0.200;2023-04-15T08:22:56;5.38;;;2.13;;
35909;SDS011;22004;49.120;-0.200;2023-04-15T08:25:22;7.50;;;2.20;;
35909;SDS011;22004;49.120;-0.200;2023-04-15T08:27:47;5.70;;;2.08;;
35909;SDS011;22004;49.120;-0.200;2023-04-15T08:30:13;5.85;;;2.03;;
35909;SDS011;22004;49.120;-0.200;2023-04-15T08:32:40;5.65;;;1.92;;
35909;SDS011;22004;49.120;-0.200;2023-04-15T08:35:06;4.07;;;1.90;;
35909;SDS011;22004;49.120;-0.200;2023-04-15T08:37:32;7.47;;;2.47;;
35909;SDS011;22004;49.120;-0.200;2023-04-15T08:39:57;7.40;;;2.38;;
35909;SDS011;22004;49.120;-0.200;2023-04-15T08:42:25;9.23;;;2.10;;
35909;SDS011;22004;49.120;-0.200;2023-04-15T08:44:55;5.90;;;2.40;;
35909;SDS011;22004;49.120;-0.200;2023-04-15T08:47:23;6.55;;;2.05;;
35909;SDS011;22004;49.120;-0.200;2023-04-15T08:49:53;5.55;;;2.13;;
35909;SDS011;22004;49.120;-0.200;2023-04-15T08:52:19;5.40;;;2.05;;
35909;SDS011;22004;49.120;-0.200;2023-04-15T08:54:45;8.38;;;2.15;;
35909;SDS011;22004;49.120;-0.200;2023-04-15T08:57:12;2.35;;;1.63;;
35909;SDS011;22004;49.120;-0.200;2023-04-15T08:59:38;5.85;;;1.80;;
35909;SDS011;22004;49.120;-0.200;2023-04-15T09:02:04;3.92;;;1.58;;
35909;SDS011;22004;49.120;-0.200;2023-04-15T09:04:29;4.15;;;1.60;;
35909;SDS011;22004;49.120;-0.200;2023-04-15T09:06:55;6.15;;;1.55;;
35909;SDS011;22004;49.120;-0.200;2023-04-15T09:09:21;3.22;;;1.30;;
35909;SDS011;22004;49.120;-0.200;2023-04-15T09:11:46;3.17;;;1.65;;
35909;SDS011;22004;49.120;-0.200;2023-04-15T09:14:13;6.15;;;1.70;;
35909;SDS011;22004;49.120;-0.200;2023-04-15T09:16:58;7.88;;;1.60;;
35909;SDS011;22004;49.120;-0.200;2023-04-15T09:19:28;3.63;;;1.63;;
35909;SDS011;22004;49.120;-0.200;2023-04-15T09:21:54;5.47;;;2.00;;
35909;SDS011;22004;49.120;-0.200;2023-04-15T09:24:21;5.00;;;1.48;;
35909;SDS011;22004;49.120;-0.200;2023-04-15T09:26:47;7.97;;;1.80;;
35909;SDS011;22004;49.120;-0.200;2023-04-15T09:29:16;3.92;;;1.20;;
35909;SDS011;22004;49.120;-0.200;2023-04-15T09:31:42;5.80;;;1.77;;
35909;SDS011;22004;49.120;-0.200;2023-04-15T09:34:08;7.88;;;1.40;;
35909;SDS011;22004;49.120;-0.200;2023-04-15T09:36:53;5.28;;;1.60;;
35909;SDS011;22004;49.120;-0.200;2023-04-15T09:39:20;5.85;;;2.17;;
35909;SDS011;22004;49.120;-0.200;2023-04-15T09:41:46;6.70;;;1.80;;
35909;SDS011;22004;49.120;-0.200;2023-04-15T09:44:27;6.25;;;2.00;;
35909;SDS011;22004;49.120;-0.200;2023-04-15T09:46:53;6.57;;;2.30;;
35909;SDS011;22004;49.120;-0.200;2023-04-15T09:49:18;5.70;;;2.15;;
35909;SDS011;22004;49.120;-0.200;2023-04-15T09:51:44;4.72;;;2.05;;
35909;SDS011;22004;49.120;-0.200;2023-04-15T09:54:11;7.05;;;2.47;;
35909;SDS011;22004;49.120;-0.200;2023-04-15T09:56:37;8.45;;;2.20;;
35909;SDS011;22004;49.120;-0.200;2023-04-15T09:59:08;5.47;;;1.77;;
35909;SDS011;22004;49.120;-0.200;2023-04-15T10:01:34;8.02;;;2.20;;
35909;SDS011;22004;49.120;-0.200;2023-04-15T10:04:03;5.78;;;1.85;;
35909;SDS011;22004;49.120;-0.200;2023-04-15T10:06:29;6.68;;;2.25;;
35909;SDS011;22004;49.120;-0.200;2023-04-15T10:08:56;5.80;;;2.13;;
35909;SDS011;22004;49.120;-0.200;2023-04-15T10:11:22;6.50;;;2.35;;
35909;SDS011;22004;49.120;-0.200;2023-04-15T10:13:48;7.90;;;2.92;;
35909;SDS011;22004;49.120;-0.200;2023-04-15T10:16:15;9.70;;;3.00;;
35909;SDS011;22004;49.120;-0.200;2023-04-15T10:18:50;9.48;;;2.90;;
35909;SDS011;22004;49.120;-0.200;2023-04-15T10:21:19;12.38;;;2.78;;
35909;SDS011;22004;49.120;-0.200;2023-04-15T10:23:46;7.35;;;2.75;;
35909;SDS011;22004;49.120;-0.200;2023-04-15T10:26:12;7.88;;;2.10;;
35909;SDS011;22004;49.120;-0.200;2023-04-15T10:28:41;7.70;;;2.55;;
35909;SDS011;22004;49.120;-0.200;2023-04-15T10:31:07;7.93;;;2.47;;
35909;SDS011;22004;49.120;-0.200;2023-04-15T10:33:36;6.13;;;2.40;;
35909;SDS011;22004;49.120;-0.200;2023-04-15T10:36:03;8.88;;;2.60;;
35909;SDS011;22004;49.120;-0.200;2023-04-15T10:43:38;5.75;;;2.22;;
35909;SDS011;22004;49.120;-0.200;2023-04-15T10:46:05;6.35;;;2.58;;
35909;SDS011;22004;49.120;-0.200;2023-04-15T10:48:31;9.38;;;2.22;;
35909;SDS011;22004;49.120;-0.200;2023-04-15T10:50:57;7.10;;;2.30;;
35909;SDS011;22004;49.120;-0.200;2023-04-15T10:53:27;6.43;;;2.30;;
35909;SDS011;22004;49.120;-0.200;2023-04-15T10:55:54;7.00;;;2.28;;
35909;SDS011;22004;49.120;-0.200;2023-04-15T10:58:22;4.35;;;1.95;;
35909;SDS011;22004;49.120;-0.200;2023-04-15T11:00:49;4.95;;;2.35;;
35909;SDS011;22004;49.120;-0.200;2023-04-15T11:03:37;8.40;;;2.10;;
35909;SDS011;22004;49.120;-0.200;2023-04-15T11:06:08;9.00;;;2.90;;
35909;SDS011;22004;49.120;-0.200;2023-04-15T11:08:53;6.40;;;3.10;;
35909;SDS011;22004;49.120;-0.200;2023-04-15T11:11:20;6.78;;;2.50;;
35909;SDS011;22004;49.120;-0.200;2023-04-15T11:13:46;12.70;;;2.72;;
35909;SDS011;22004;49.120;-0.200;2023-04-15T11:16:13;6.85;;;2.65;;
35909;SDS011;22004;49.120;-0.200;2023-04-15T11:18:39;7.28;;;2.58;;
35909;SDS011;22004;49.120;-0.200;2023-04-15T11:21:05;9.77;;;2.95;;
35909;SDS011;22004;49.120;-0.200;2023-04-15T11:26:05;10.90;;;3.60;;
35909;SDS011;22004;49.120;-0.200;2023-04-15T11:28:36;3.72;;;2.35;;
35909;SDS011;22004;49.120;-0.200;2023-04-15T11:31:08;6.70;;;3.33;;
35909;SDS011;22004;49.120;-0.200;2023-04-15T11:33:35;7.78;;;3.05;;
35909;SDS011;22004;49.120;-0.200;2023-04-15T11:36:00;10.60;;;3.47;;
35909;SDS011;22004;49.120;-0.200;2023-04-15T11:38:27;7.20;;;2.83;;
35909;SDS011;22004;49.120;-0.200;2023-04-15T11:40:53;10.70;;;3.58;;
35909;SDS011;22004;49.120;-0.200;2023-04-15T11:43:19;10.10;;;4.07;;
35909;SDS011;22004;49.120;-0.200;2023-04-15T11:45:53;6.97;;;3.42;;
35909;SDS011;22004;49.120;-0.200;2023-04-15T11:48:19;5.70;;;3.38;;
35909;SDS011;22004;49.120;-0.200;2023-04-15T11:50:51;8.43;;;3.30;;
35909;SDS011;22004;49.120;-0.200;2023-04-15T11:53:21;9.90;;;3.60;;
35909;SDS011;22004;49.120;-0.200;2023-04-15T11:55:48;5.45;;;2.70;;
35909;SDS011;22004;49.120;-0.200;2023-04-15T11:58:16;16.08;;;5.03;;
35909;SDS011;22004;49.120;-0.200;2023-04-15T12:11:16;10.82;;;4.40;;
35909;SDS011;22004;49.120;-0.200;2023-04-15T12:13:43;10.68;;;4.80;;
35909;SDS011;22004;49.120;-0.200;2023-04-15T12:16:10;4.43;;;3.10;;
35909;SDS011;22004;49.120;-0.200;2023-04-15T12:18:39;7.82;;;3.60;;
35909;SDS011;22004;49.120;-0.200;2023-04-15T12:21:11;10.27;;;3.65;;
35909;SDS011;22004;49.120;-0.200;2023-04-15T12:23:37;12.00;;;4.30;;
35909;SDS011;22004;49.120;-0.200;2023-04-15T12:26:06;14.85;;;5.72;;
35909;SDS011;22004;49.120;-0.200;2023-04-15T12:28:33;9.10;;;4.15;;
35909;SDS011;22004;49.120;-0.200;2023-04-15T12:31:05;5.93;;;3.88;;
35909;SDS011;22004;49.120;-0.200;2023-04-15T12:33:32;7.57;;;3.60;;
35909;SDS011;22004;49.120;-0.200;2023-04-15T12:35:58;14.43;;;5.07;;
35909;SDS011;22004;49.120;-0.200;2023-04-15T12:38:23;8.93;;;4.05;;
35909;SDS011;22004;49.120;-0.200;2023-04-15T12:40:48;8.48;;;4.18;;
35909;SDS011;22004;49.120;-0.200;2023-04-15T12:43:14;9.10;;;4.15;;
35909;SDS011;22004;49.120;-0.200;2023-04-15T12:45:39;9.55;;;4.80;;
35909;SDS011;22004;49.120;-0.200;2023-04-15T12:48:05;9.68;;;4.55;;
35909;SDS011;22004;49.120;-0.200;2023-04-15T12:50:32;9.68;;;4.57;;
35909;SDS011;22004;49.120;-0.200;2023-04-15T12:52:57;10.13;;;4.13;;
35909;SDS011;22004;49.120;-0.200;2023-04-15T12:55:23;12.32;;;4.85;;
35909;SDS011;22004;49.120;-0.200;2023-04-15T12:57:48;7.53;;;3.60;;
35909;SDS011;22004;49.120;-0.200;2023-04-15T13:00:13;10.05;;;4.97;;
35909;SDS011;22004;49.120;-0.200;2023-04-15T13:02:39;11.48;;;4.40;;
35909;SDS011;22004;49.120;-0.200;2023-04-15T13:05:06;14.50;;;4.72;;
35909;SDS011;22004;49.120;-0.200;2023-04-15T13:07:31;7.45;;;4.28;;
35909;SDS011;22004;49.120;-0.200;2023-04-15T13:09:56;9.63;;;4.95;;
35909;SDS011;22004;49.120;-0.200;2023-04-15T13:12:22;12.05;;;4.35;;
35909;SDS011;22004;49.120;-0.200;2023-04-15T13:14:47;10.32;;;4.97;;
35909;SDS011;22004;49.120;-0.200;2023-04-15T13:17:13;10.25;;;4.90;;
35909;SDS011;22004;49.120;-0.200;2023-04-15T13:19:38;7.72;;;4.55;;
35909;SDS011;22004;49.120;-0.200;2023-04-15T13:22:03;12.43;;;4.65;;
35909;SDS011;22004;49.120;-0.200;2023-04-15T13:24:29;12.85;;;4.95;;
35909;SDS011;22004;49.120;-0.200;2023-04-15T13:26:54;14.82;;;5.57;;
35909;SDS011;22004;49.120;-0.200;2023-04-15T13:29:21;13.45;;;4.57;;
35909;SDS011;22004;49.120;-0.200;2023-04-15T13:31:46;14.02;;;4.57;;
35909;SDS011;22004;49.120;-0.200;2023-04-15T13:34:11;14.88;;;4.60;;
35909;SDS011;22004;49.120;-0.200;2023-04-15T13:36:37;13.32;;;5.72;;
35909;SDS011;22004;49.120;-0.200;2023-04-15T13:39:02;10.57;;;4.85;;
35909;SDS011;22004;49.120;-0.200;2023-04-15T13:41:29;8.55;;;4.53;;
35909;SDS011;22004;49.120;-0.200;2023-04-15T13:43:54;12.77;;;4.07;;
35909;SDS011;22004;49.120;-0.200;2023-04-15T13:46:20;8.20;;;4.43;;
35909;SDS011;22004;49.120;-0.200;2023-04-15T13:48:45;13.48;;;4.68;;
35909;SDS011;22004;49.120;-0.200;2023-04-15T13:51:11;10.15;;;4.47;;
35909;SDS011;22004;49.120;-0.200;2023-04-15T13:53:37;8.88;;;3.13;;
35909;SDS011;22004;49.120;-0.200;2023-04-15T13:56:02;9.20;;;4.47;;
35909;SDS011;22004;49.120;-0.200;2023-04-15T13:58:28;12.25;;;5.22;;
35909;SDS011;22004;49.120;-0.200;2023-04-15T14:00:53;8.02;;;3.95;;
35909;SDS011;22004;49.120;-0.200;2023-04-15T14:03:18;10.25;;;4.10;;
35909;SDS011;22004;49.120;-0.200;2023-04-15T14:05:44;6.05;;;3.83;;
35909;SDS011;22004;49.120;-0.200;2023-04-15T14:08:09;12.30;;;4.47;;
35909;SDS011;22004;49.120;-0.200;2023-04-15T14:10:35;13.50;;;3.95;;
35909;SDS011;22004;49.120;-0.200;2023-04-15T14:13:00;8.18;;;4.72;;
35909;SDS011;22004;49.120;-0.200;2023-04-15T14:15:25;8.68;;;4.55;;
35909;SDS011;22004;49.120;-0.200;2023-04-15T14:17:51;8.55;;;4.80;;
35909;SDS011;22004;49.120;-0.200;2023-04-15T14:20:16;10.60;;;4.30;;
35909;SDS011;22004;49.120;-0.200;2023-04-15T14:22:41;13.20;;;5.80;;
35909;SDS011;22004;49.120;-0.200;2023-04-15T14:25:07;10.23;;;5.05;;
35909;SDS011;22004;49.120;-0.200;2023-04-15T14:27:32;8.90;;;4.70;;
35909;SDS011;22004;49.120;-0.200;2023-04-15T14:29:58;6.32;;;2.75;;
35909;SDS011;22004;49.120;-0.200;2023-04-15T14:32:24;8.10;;;3.85;;
35909;SDS011;22004;49.120;-0.200;2023-04-15T14:34:50;14.15;;;5.28;;
35909;SDS011;22004;49.120;-0.200;2023-04-15T14:37:15;8.15;;;4.75;;
35909;SDS011;22004;49.120;-0.200;2023-04-15T14:39:40;7.70;;;4.43;;
35909;SDS011;22004;49.120;-0.200;2023-04-15T14:42:06;8.95;;;4.20;;
35909;SDS011;22004;49.120;-0.200;2023-04-15T14:44:31;9.68;;;4.63;;
35909;SDS011;22004;49.120;-0.200;2023-04-15T14:46:56;8.93;;;4.10;;
35909;SDS011;22004;49.120;-0.200;2023-04-15T14:49:22;14.93;;;4.93;;
35909;SDS011;22004;49.120;-0.200;2023-04-15T14:51:47;8.55;;;4.28;;